Time;durP1;ratioP1;P1;durP2;ratioP2;P2;SDS_P1;SDS_P2;PMS_P1;PMS_P2;Temp;Humidity;BMP_temperature;BMP_pressure;BME280_temperature;BME280_humidity;BME280_pressure;Samples;Min_cycle;Max_cycle;Signal;HPM_P1;HPM_P2
2022/12/25 00:01:20;;;;;;;9.80;4.80;;;9.60;99.90;;;;;;4919005;28;20464;-74
2022/12/25 00:03:49;;;;;;;16.17;6.33;;;9.60;99.90;;;;;;4966330;28;20456;-74
2022/12/25 00:06:18;;;;;;;9.50;5.50;;;9.60;99.90;;;;;;4935748;28;20504;-75
2022/12/25 00:08:44;;;;;;;10.67;5.57;;;9.60;99.90;;;;;;4908642;28;21001;-75
2022/12/25 00:11:15;;;;;;;13.37;5.67;;;9.60;99.90;;;;;;4894869;28;20775;-74
2022/12/25 00:13:43;;;;;;;11.30;4.90;;;9.60;99.90;;;;;;4900305;28;20986;-74
2022/12/25 00:16:14;;;;;;;11.20;6.00;;;9.60;99.90;;;;;;4921375;28;20528;-74
2022/12/25 00:18:40;;;;;;;10.70;5.60;;;9.60;99.90;;;;;;4913161;29;20947;-75
2022/12/25 00:21:07;;;;;;;7.47;4.70;;;9.60;99.90;;;;;;4895150;28;20472;-73
2022/12/25 00:23:34;;;;;;;11.60;4.00;;;9.60;99.90;;;;;;4887193;28;20480;-73
2022/12/25 00:26:04;;;;;;;10.27;4.60;;;9.60;99.90;;;;;;4950499;28;20786;-73
2022/12/25 00:28:31;;;;;;;8.87;4.87;;;9.60;99.90;;;;;;4893093;28;20469;-73
2022/12/25 00:30:57;;;;;;;13.77;4.77;;;9.50;99.90;;;;;;4903624;29;20485;-73
2022/12/25 00:33:26;;;;;;;8.07;4.50;;;9.50;99.90;;;;;;4892125;29;20459;-74
2022/12/25 00:35:59;;;;;;;12.10;4.33;;;9.50;99.90;;;;;;4894787;28;20507;-73
2022/12/25 00:38:26;;;;;;;12.10;5.47;;;9.50;99.90;;;;;;4899651;28;20423;-74
2022/12/25 00:40:52;;;;;;;10.97;4.60;;;9.50;99.90;;;;;;4875747;28;20521;-73
2022/12/25 00:43:19;;;;;;;6.93;4.77;;;9.50;99.90;;;;;;4899059;28;20532;-73
2022/12/25 00:45:59;;;;;;;7.73;4.83;;;9.50;99.90;;;;;;4902266;28;20451;-75
2022/12/25 00:48:29;;;;;;;10.57;4.20;;;9.50;99.90;;;;;;4901213;29;20465;-74
2022/12/25 00:50:57;;;;;;;9.90;5.23;;;9.50;99.90;;;;;;4909441;29;20434;-75
2022/12/25 00:53:24;;;;;;;12.03;5.03;;;9.50;99.90;;;;;;4913060;28;20488;-75
2022/12/25 00:55:52;;;;;;;9.03;4.83;;;9.50;99.90;;;;;;4959095;28;20785;-74
2022/12/25 00:58:18;;;;;;;10.33;5.10;;;9.50;99.90;;;;;;4894619;29;20445;-75
2022/12/25 01:00:48;;;;;;;8.70;4.40;;;9.50;99.90;;;;;;4908796;28;20464;-74
2022/12/25 01:03:17;;;;;;;8.50;4.73;;;9.50;99.90;;;;;;4907140;29;20458;-74
2022/12/25 01:05:59;;;;;;;18.13;6.57;;;9.50;99.90;;;;;;4883019;28;20521;-74
2022/12/25 01:08:30;;;;;;;8.93;4.10;;;9.50;99.90;;;;;;4890499;29;20837;-74
2022/12/25 01:11:05;;;;;;;6.43;4.10;;;9.50;99.90;;;;;;4901479;29;20439;-75
2022/12/25 01:13:33;;;;;;;10.60;5.00;;;9.50;99.90;;;;;;4893770;28;21035;-74
2022/12/25 01:16:10;;;;;;;8.63;4.57;;;9.50;99.90;;;;;;4877673;29;20435;-74
2022/12/25 01:18:37;;;;;;;6.20;3.87;;;9.50;99.90;;;;;;4898281;29;20439;-74
2022/12/25 01:21:08;;;;;;;12.00;4.30;;;9.50;99.90;;;;;;4893254;28;20446;-74
2022/12/25 01:23:34;;;;;;;8.90;4.93;;;9.50;99.90;;;;;;4954090;28;20577;-74
2022/12/25 01:26:05;;;;;;;7.50;4.23;;;9.50;99.90;;;;;;4910897;28;20547;-74
2022/12/25 01:28:37;;;;;;;7.43;4.50;;;9.50;99.90;;;;;;4895804;28;20511;-74
2022/12/25 01:31:04;;;;;;;9.67;4.10;;;9.50;99.90;;;;;;4893599;28;20426;-74
2022/12/25 01:33:30;;;;;;;7.07;4.30;;;9.50;99.90;;;;;;4889801;29;20489;-74
2022/12/25 01:35:57;;;;;;;6.40;3.73;;;9.50;99.90;;;;;;4881187;29;20440;-74
2022/12/25 01:38:25;;;;;;;11.83;4.50;;;9.50;99.90;;;;;;4893356;28;20495;-74
2022/12/25 01:40:54;;;;;;;10.43;4.07;;;9.50;99.90;;;;;;4959076;28;20540;-74
2022/12/25 01:43:28;;;;;;;8.10;4.37;;;9.50;99.90;;;;;;4894276;29;20438;-75
2022/12/25 01:45:54;;;;;;;9.13;4.10;;;9.50;99.90;;;;;;4893980;29;20492;-74
2022/12/25 01:48:31;;;;;;;6.60;4.30;;;9.50;99.90;;;;;;4908477;29;20886;-74
2022/12/25 01:51:02;;;;;;;5.97;3.80;;;9.50;99.90;;;;;;4894448;29;20397;-74
2022/12/25 01:53:31;;;;;;;6.73;4.03;;;9.50;99.90;;;;;;4904432;29;20921;-74
2022/12/25 01:56:04;;;;;;;6.20;3.93;;;9.50;99.90;;;;;;4885985;28;20868;-74
2022/12/25 01:58:30;;;;;;;8.20;4.23;;;9.50;99.90;;;;;;4886001;29;21015;-74
2022/12/25 02:00:58;;;;;;;7.70;4.80;;;9.50;99.90;;;;;;4894080;29;20426;-74
2022/12/25 02:03:29;;;;;;;5.53;3.23;;;9.50;99.90;;;;;;4892937;28;20541;-74
2022/12/25 02:06:00;;;;;;;7.13;3.93;;;9.50;99.90;;;;;;4957478;28;20445;-74
2022/12/25 02:08:29;;;;;;;5.80;3.87;;;9.50;99.90;;;;;;4892782;28;20488;-74
2022/12/25 02:10:58;;;;;;;6.37;3.70;;;9.50;99.90;;;;;;4894021;29;20473;-74
2022/12/25 02:13:30;;;;;;;7.10;3.77;;;9.50;99.90;;;;;;4924552;28;20545;-74
2022/12/25 02:16:08;;;;;;;6.90;3.50;;;9.50;99.90;;;;;;4908158;29;20427;-74
2022/12/25 02:18:40;;;;;;;4.43;3.13;;;9.50;99.90;;;;;;4957714;28;20962;-74
2022/12/25 02:21:56;;;;;;;8.17;3.30;;;9.50;99.90;;;;;;4922595;29;20432;-75
2022/12/25 02:24:42;;;;;;;5.00;3.10;;;9.50;99.90;;;;;;4906754;28;20958;-74
2022/12/25 02:27:21;;;;;;;7.47;3.70;;;9.50;99.90;;;;;;4929258;28;20444;-74
2022/12/25 02:29:52;;;;;;;6.37;3.73;;;9.50;99.90;;;;;;4893650;29;20469;-74
2022/12/25 02:32:25;;;;;;;9.03;3.50;;;9.50;99.90;;;;;;4889046;29;20490;-74
2022/12/25 02:35:06;;;;;;;5.60;3.50;;;9.50;99.90;;;;;;4875168;29;20557;-74
2022/12/25 02:37:41;;;;;;;8.50;3.70;;;9.50;99.90;;;;;;4872437;29;20928;-74
2022/12/25 02:40:09;;;;;;;6.07;3.87;;;9.50;99.90;;;;;;4891048;29;20426;-74
2022/12/25 03:08:23;;;;;;;7.93;3.57;;;9.50;99.90;;;;;;4907808;29;20606;-74
2022/12/25 03:13:45;;;;;;;7.07;3.83;;;9.50;99.90;;;;;;4913706;28;20536;-74
2022/12/25 03:18:57;;;;;;;4.60;2.60;;;9.50;99.90;;;;;;4893076;29;20599;-74
2022/12/25 03:26:57;;;;;;;3.90;2.63;;;9.50;99.90;;;;;;4895604;28;21000;-74
2022/12/25 03:32:40;;;;;;;3.63;3.00;;;9.50;99.90;;;;;;4893432;29;20453;-74
2022/12/25 03:35:24;;;;;;;6.07;3.10;;;9.50;99.90;;;;;;4895662;29;20470;-74
2022/12/25 04:37:41;;;;;;;5.70;2.93;;;9.60;99.90;;;;;;4874434;28;20452;-75
2022/12/25 04:40:09;;;;;;;8.33;3.10;;;9.60;99.90;;;;;;4908969;28;20814;-74
2022/12/25 04:42:40;;;;;;;6.13;3.10;;;9.50;99.90;;;;;;4942098;28;20550;-74
2022/12/25 04:45:06;;;;;;;3.20;2.47;;;9.60;99.90;;;;;;4899898;28;20941;-74
2022/12/25 04:47:32;;;;;;;5.93;3.00;;;9.60;99.90;;;;;;4944973;28;20445;-74
2022/12/25 04:49:58;;;;;;;4.90;2.90;;;9.60;99.90;;;;;;4913555;28;20703;-74
2022/12/25 04:52:24;;;;;;;4.10;2.90;;;9.60;99.90;;;;;;4894682;29;20474;-74
2022/12/25 04:54:53;;;;;;;4.43;3.00;;;9.60;99.90;;;;;;4910017;29;20405;-74
2022/12/25 04:57:21;;;;;;;7.43;2.97;;;9.60;99.90;;;;;;4910286;28;20436;-74
2022/12/25 04:59:49;;;;;;;6.60;2.90;;;9.60;99.90;;;;;;4950657;28;21064;-74
2022/12/25 05:02:17;;;;;;;4.17;2.53;;;9.60;99.90;;;;;;4910338;29;20520;-74
2022/12/25 05:04:43;;;;;;;5.57;3.23;;;9.60;99.90;;;;;;4891608;28;20476;-73
2022/12/25 05:07:09;;;;;;;4.63;2.50;;;9.60;99.90;;;;;;4889971;28;20471;-73
2022/12/25 05:09:41;;;;;;;4.67;2.80;;;9.60;99.90;;;;;;4906641;29;21078;-74
2022/12/25 05:12:08;;;;;;;5.50;2.60;;;9.60;99.90;;;;;;4896923;29;20465;-74
2022/12/25 05:14:34;;;;;;;4.27;2.57;;;9.60;99.90;;;;;;4892562;28;20429;-74
2022/12/25 05:17:02;;;;;;;7.80;3.50;;;9.60;99.90;;;;;;4879537;29;20441;-74
2022/12/25 05:19:28;;;;;;;3.53;3.00;;;9.60;99.90;;;;;;4902058;28;20898;-74
2022/12/25 05:21:54;;;;;;;5.57;2.90;;;9.60;99.90;;;;;;4910300;29;20811;-75
2022/12/25 05:24:25;;;;;;;3.70;2.53;;;9.60;99.90;;;;;;4909373;29;20534;-75
2022/12/25 05:26:53;;;;;;;6.40;2.67;;;9.60;99.90;;;;;;4884643;28;20819;-75
2022/12/25 05:29:22;;;;;;;3.50;2.20;;;9.60;99.90;;;;;;4864207;29;20573;-75
2022/12/25 05:31:55;;;;;;;3.30;2.37;;;9.60;99.90;;;;;;4888843;28;20834;-74
2022/12/25 05:34:23;;;;;;;5.67;2.80;;;9.60;99.90;;;;;;4894942;28;20453;-74
2022/12/25 05:36:49;;;;;;;6.33;3.00;;;9.60;99.90;;;;;;4893246;28;20437;-74
2022/12/25 05:39:18;;;;;;;5.03;2.57;;;9.60;99.90;;;;;;4907120;28;20460;-74
2022/12/25 05:41:49;;;;;;;4.43;2.60;;;9.60;99.90;;;;;;4893816;29;20525;-75
2022/12/25 05:44:19;;;;;;;5.37;2.90;;;9.60;99.90;;;;;;4893780;28;20425;-74
2022/12/25 05:46:47;;;;;;;2.77;2.30;;;9.60;99.90;;;;;;4908307;29;20425;-75
2022/12/25 05:49:13;;;;;;;8.10;3.07;;;9.60;99.90;;;;;;4908194;28;20480;-74
2022/12/25 05:51:39;;;;;;;6.63;2.70;;;9.60;99.90;;;;;;4894014;28;20807;-74
2022/12/25 05:54:09;;;;;;;4.30;2.27;;;9.60;99.90;;;;;;4907598;29;20465;-74
2022/12/25 05:56:35;;;;;;;4.53;3.17;;;9.60;99.90;;;;;;4897486;28;20444;-74
2022/12/25 05:59:01;;;;;;;5.03;2.77;;;9.60;99.90;;;;;;4894554;28;20994;-74
2022/12/25 06:01:27;;;;;;;5.13;3.07;;;9.60;99.90;;;;;;4878558;28;20461;-74
2022/12/25 06:03:53;;;;;;;4.17;2.80;;;9.60;99.90;;;;;;4904209;28;20695;-75
2022/12/25 06:06:22;;;;;;;4.40;2.57;;;9.70;99.90;;;;;;4894205;28;20434;-74
2022/12/25 06:08:53;;;;;;;5.33;2.50;;;9.60;99.90;;;;;;4889870;28;20512;-75
2022/12/25 06:11:22;;;;;;;6.03;2.77;;;9.70;99.90;;;;;;4893809;29;20427;-74
2022/12/25 06:13:51;;;;;;;5.87;2.40;;;9.70;99.90;;;;;;4908646;29;20468;-74
2022/12/25 06:16:23;;;;;;;3.17;2.10;;;9.60;99.90;;;;;;4880910;28;20446;-74
2022/12/25 06:18:51;;;;;;;5.43;2.87;;;9.60;99.90;;;;;;4886291;28;20563;-71
2022/12/25 06:21:19;;;;;;;3.43;2.23;;;9.60;99.90;;;;;;4894809;29;20457;-72
2022/12/25 06:23:46;;;;;;;6.17;2.30;;;9.70;99.90;;;;;;4912538;28;20461;-71
2022/12/25 06:26:14;;;;;;;5.93;2.50;;;9.70;99.90;;;;;;4884184;29;20937;-71
2022/12/25 06:28:41;;;;;;;4.53;2.27;;;9.70;99.90;;;;;;4901836;28;20472;-71
2022/12/25 06:31:11;;;;;;;3.50;2.40;;;9.60;99.90;;;;;;4894789;28;20439;-71
2022/12/25 06:33:40;;;;;;;4.37;2.93;;;9.60;99.90;;;;;;4881349;28;20622;-71
2022/12/25 06:36:10;;;;;;;6.87;2.40;;;9.60;99.90;;;;;;4899960;29;20448;-70
2022/12/25 06:38:39;;;;;;;7.70;2.67;;;9.60;99.90;;;;;;4893180;29;20494;-71
2022/12/25 06:41:11;;;;;;;3.90;2.67;;;9.60;99.90;;;;;;4907919;29;20437;-71
2022/12/25 06:43:40;;;;;;;5.57;2.60;;;9.60;99.90;;;;;;4909458;29;20469;-71
2022/12/25 06:46:08;;;;;;;6.50;2.70;;;9.60;99.90;;;;;;4894516;29;20442;-71
2022/12/25 06:48:35;;;;;;;3.10;2.60;;;9.70;99.90;;;;;;4894868;28;20446;-71
2022/12/25 06:51:02;;;;;;;5.73;2.77;;;9.60;99.90;;;;;;4894709;29;20437;-71
2022/12/25 06:53:31;;;;;;;8.40;3.10;;;9.60;99.90;;;;;;4893361;29;20459;-71
2022/12/25 06:56:05;;;;;;;5.07;2.20;;;9.60;99.90;;;;;;4891405;28;20938;-71
2022/12/25 06:58:31;;;;;;;6.03;2.27;;;9.70;99.90;;;;;;4894825;29;20775;-71
2022/12/25 07:00:57;;;;;;;7.53;2.80;;;9.60;99.90;;;;;;4911220;29;20512;-71
2022/12/25 07:03:25;;;;;;;4.43;2.53;;;9.60;99.90;;;;;;4911704;29;20504;-71
2022/12/25 07:05:54;;;;;;;4.23;2.67;;;9.70;99.90;;;;;;4922841;29;20428;-71
2022/12/25 07:08:20;;;;;;;8.57;2.23;;;9.60;99.90;;;;;;4910695;29;20475;-71
2022/12/25 07:10:46;;;;;;;5.07;2.57;;;9.60;99.90;;;;;;4922968;29;20460;-71
2022/12/25 07:13:12;;;;;;;3.87;2.40;;;9.60;99.90;;;;;;4962999;28;20556;-71
2022/12/25 07:15:38;;;;;;;6.70;2.67;;;9.60;99.90;;;;;;4909176;29;20456;-71
2022/12/25 07:18:04;;;;;;;8.87;2.93;;;9.70;99.90;;;;;;4911958;29;20432;-71
2022/12/25 07:20:30;;;;;;;4.43;2.00;;;9.60;99.90;;;;;;4904899;28;20434;-71
2022/12/25 07:22:56;;;;;;;4.13;2.80;;;9.60;99.90;;;;;;4903472;28;20451;-71
2022/12/25 07:25:22;;;;;;;5.00;2.67;;;9.60;99.90;;;;;;4915195;29;20440;-71
2022/12/25 07:27:48;;;;;;;5.10;2.20;;;9.60;99.90;;;;;;4901191;28;20455;-71
2022/12/25 07:30:14;;;;;;;5.43;2.37;;;9.70;99.90;;;;;;4890768;28;20477;-71
2022/12/25 07:32:39;;;;;;;4.07;2.50;;;9.60;99.90;;;;;;4912015;29;20519;-71
2022/12/25 07:35:06;;;;;;;5.57;2.53;;;9.60;99.90;;;;;;4900885;29;20425;-71
2022/12/25 07:37:32;;;;;;;3.00;2.00;;;9.70;99.90;;;;;;4925655;28;20419;-71
2022/12/25 07:40:02;;;;;;;5.43;2.30;;;9.70;99.90;;;;;;5009939;28;20965;-71
2022/12/25 07:42:31;;;;;;;3.53;1.83;;;9.70;99.90;;;;;;4994091;28;20450;-71
2022/12/25 07:44:57;;;;;;;2.70;2.00;;;9.70;99.90;;;;;;4977722;28;20964;-71
2022/12/25 07:47:23;;;;;;;4.47;1.97;;;9.70;99.90;;;;;;4990961;28;20446;-71
2022/12/25 07:49:49;;;;;;;6.27;2.37;;;9.70;99.90;;;;;;4973867;28;20270;-71
2022/12/25 07:52:21;;;;;;;4.60;2.40;;;9.70;99.90;;;;;;4993717;28;20540;-71
2022/12/25 07:54:47;;;;;;;3.20;2.20;;;9.70;99.90;;;;;;5010176;28;20879;-71
2022/12/25 07:57:13;;;;;;;4.83;2.40;;;9.70;99.90;;;;;;4958046;28;20980;-72
2022/12/25 07:59:39;;;;;;;7.63;2.10;;;9.70;99.90;;;;;;4990656;28;20449;-72
2022/12/25 08:02:05;;;;;;;4.50;2.50;;;9.70;99.90;;;;;;4993214;28;20419;-72
2022/12/25 08:04:31;;;;;;;5.20;2.27;;;9.70;99.90;;;;;;4976132;28;20508;-72
2022/12/25 08:06:57;;;;;;;6.73;2.40;;;9.70;99.90;;;;;;4960289;28;20580;-72
2022/12/25 08:09:23;;;;;;;4.27;2.10;;;9.70;99.90;;;;;;4974226;28;20469;-72
2022/12/25 08:11:52;;;;;;;4.10;2.27;;;9.70;99.90;;;;;;4956177;28;20814;-72
2022/12/25 08:14:18;;;;;;;3.87;2.00;;;9.70;99.90;;;;;;4885910;28;20429;-71
2022/12/25 08:16:45;;;;;;;4.03;2.40;;;9.70;99.90;;;;;;4895734;29;20422;-72
2022/12/25 08:19:13;;;;;;;3.70;2.10;;;9.70;99.90;;;;;;4905885;29;20487;-72
2022/12/25 08:21:39;;;;;;;5.23;2.00;;;9.70;99.90;;;;;;4896614;29;20409;-72
2022/12/25 08:24:05;;;;;;;3.10;1.83;;;9.70;99.90;;;;;;4961338;28;20445;-72
2022/12/25 08:26:31;;;;;;;4.37;2.30;;;9.70;99.90;;;;;;4896210;28;20788;-72
2022/12/25 08:28:57;;;;;;;7.00;2.37;;;9.70;99.90;;;;;;4896032;29;20496;-72
2022/12/25 08:31:27;;;;;;;4.27;1.93;;;9.80;99.90;;;;;;4908386;29;20426;-72
2022/12/25 08:33:57;;;;;;;4.43;2.30;;;9.70;99.90;;;;;;4894514;28;20463;-72
2022/12/25 08:36:23;;;;;;;4.37;2.57;;;9.70;99.90;;;;;;4885558;29;20799;-73
2022/12/25 08:38:51;;;;;;;4.83;2.10;;;9.70;99.90;;;;;;4880880;28;20507;-75
2022/12/25 08:41:18;;;;;;;3.30;2.20;;;9.80;99.90;;;;;;4886744;29;20531;-75
2022/12/25 08:43:49;;;;;;;5.77;2.67;;;9.80;99.90;;;;;;4878008;29;21090;-75
2022/12/25 08:46:18;;;;;;;7.70;2.90;;;9.70;99.90;;;;;;4899135;29;20529;-75
2022/12/25 08:48:49;;;;;;;6.40;2.37;;;9.80;99.90;;;;;;4897029;29;20457;-75
2022/12/25 08:51:21;;;;;;;4.83;2.30;;;9.80;99.90;;;;;;4898154;29;20548;-75
2022/12/25 08:53:59;;;;;;;6.20;2.23;;;9.80;99.90;;;;;;4883442;28;20460;-75
2022/12/25 08:56:27;;;;;;;5.70;2.33;;;9.80;99.90;;;;;;4908978;29;20448;-75
2022/12/25 08:59:00;;;;;;;4.27;2.43;;;9.70;99.90;;;;;;4913131;29;20448;-76
2022/12/25 09:01:27;;;;;;;6.27;3.90;;;9.80;99.90;;;;;;4906599;29;20423;-74
2022/12/25 09:03:55;;;;;;;5.57;2.80;;;9.70;99.90;;;;;;4941744;28;20486;-75
2022/12/25 09:06:22;;;;;;;3.07;2.20;;;9.80;99.90;;;;;;4893815;28;20429;-75
2022/12/25 09:08:49;;;;;;;5.17;2.53;;;9.80;99.90;;;;;;4960081;28;20560;-75
2022/12/25 09:11:21;;;;;;;4.63;2.73;;;9.80;99.90;;;;;;4894137;29;20942;-75
2022/12/25 09:13:50;;;;;;;3.27;2.30;;;9.80;99.90;;;;;;4878938;28;20453;-75
2022/12/25 09:16:20;;;;;;;5.17;2.83;;;9.80;99.90;;;;;;4892718;29;20456;-75
2022/12/25 09:18:49;;;;;;;3.60;2.37;;;9.80;99.90;;;;;;4879570;29;21004;-75
2022/12/25 09:21:17;;;;;;;8.70;2.60;;;9.80;99.90;;;;;;4904741;28;20461;-75
2022/12/25 09:23:43;;;;;;;3.70;2.27;;;9.80;99.90;;;;;;4883915;28;20470;-75
2022/12/25 09:26:17;;;;;;;8.97;3.33;;;9.80;99.90;;;;;;4894496;28;20496;-75
2022/12/25 09:28:46;;;;;;;6.47;2.40;;;9.80;99.90;;;;;;4892640;29;20477;-75
2022/12/25 09:31:12;;;;;;;3.63;2.37;;;9.80;99.90;;;;;;4877776;28;20433;-75
2022/12/25 09:34:03;;;;;;;3.80;2.73;;;9.80;99.90;;;;;;4908817;28;20500;-75
2022/12/25 09:36:30;;;;;;;3.90;2.57;;;9.80;99.90;;;;;;4916331;28;20980;-75
2022/12/25 09:39:00;;;;;;;4.17;2.80;;;9.80;99.90;;;;;;4891407;28;20470;-75
2022/12/25 09:41:53;;;;;;;3.83;2.73;;;9.80;99.90;;;;;;4883422;29;20488;-75
2022/12/25 09:44:26;;;;;;;3.90;2.70;;;9.80;99.90;;;;;;4934602;29;20660;-75
2022/12/25 09:46:58;;;;;;;4.17;2.53;;;9.80;99.90;;;;;;4919446;28;20560;-75
2022/12/25 09:49:44;;;;;;;2.80;2.50;;;9.80;99.90;;;;;;4893091;28;20527;-75
2022/12/25 09:52:23;;;;;;;5.53;2.93;;;9.80;99.90;;;;;;4886218;29;20457;-75
2022/12/25 09:55:05;;;;;;;2.80;2.50;;;9.80;99.90;;;;;;4870180;28;20492;-75
2022/12/25 09:57:38;;;;;;;4.60;2.97;;;9.80;99.90;;;;;;4899700;28;20522;-75
2022/12/25 10:00:16;;;;;;;4.60;2.93;;;9.80;99.90;;;;;;4869411;29;20441;-73
2022/12/25 10:03:01;;;;;;;5.23;3.10;;;9.80;99.90;;;;;;4898166;28;20581;-73
2022/12/25 10:05:46;;;;;;;4.30;3.23;;;9.80;99.90;;;;;;4890533;29;20436;-75
2022/12/25 10:08:25;;;;;;;4.10;2.77;;;9.80;99.90;;;;;;4878248;28;20457;-77
2022/12/25 10:10:58;;;;;;;4.63;3.10;;;9.80;99.90;;;;;;4910813;28;20455;-78
2022/12/25 10:13:52;;;;;;;5.50;3.27;;;9.80;99.90;;;;;;4901414;28;20508;-75
2022/12/25 10:16:25;;;;;;;4.70;2.97;;;9.80;99.90;;;;;;4893892;28;20480;-75
2022/12/25 10:19:12;;;;;;;3.57;3.10;;;9.80;99.90;;;;;;4903247;28;20835;-77
2022/12/25 10:21:38;;;;;;;5.17;2.83;;;9.80;99.90;;;;;;4908360;28;20990;-76
2022/12/25 10:24:27;;;;;;;4.70;2.77;;;9.80;99.90;;;;;;4906305;28;20560;-75
2022/12/25 10:26:58;;;;;;;4.57;3.13;;;9.80;99.90;;;;;;4957466;28;20500;-74
2022/12/25 10:29:30;;;;;;;6.33;3.20;;;9.80;99.90;;;;;;4961269;28;20513;-74
2022/12/25 10:31:58;;;;;;;4.00;3.10;;;9.80;99.90;;;;;;4937508;29;20514;-70
2022/12/25 10:34:26;;;;;;;4.57;3.17;;;9.80;99.90;;;;;;4920425;28;20437;-72
2022/12/25 10:36:52;;;;;;;4.10;2.97;;;9.80;99.90;;;;;;4905359;29;20429;-70
2022/12/25 10:39:21;;;;;;;5.07;3.00;;;9.90;99.90;;;;;;4891005;28;20453;-70
2022/12/25 10:41:52;;;;;;;4.47;3.10;;;9.80;99.90;;;;;;4909199;28;20487;-73
2022/12/25 10:44:25;;;;;;;6.63;3.00;;;9.90;99.90;;;;;;4893765;29;20418;-72
2022/12/25 10:46:58;;;;;;;4.00;3.10;;;9.90;99.90;;;;;;4901339;28;20461;-72
2022/12/25 10:49:31;;;;;;;5.50;3.40;;;9.90;99.90;;;;;;4903616;28;20495;-72
2022/12/25 10:51:57;;;;;;;4.53;3.47;;;9.90;99.90;;;;;;4904078;29;20941;-72
2022/12/25 10:54:27;;;;;;;4.00;2.80;;;9.90;99.90;;;;;;4894317;28;20436;-72
2022/12/25 10:57:02;;;;;;;5.10;3.23;;;9.90;99.90;;;;;;4890873;29;20650;-72
2022/12/25 10:59:40;;;;;;;5.30;3.47;;;9.90;99.90;;;;;;4876060;29;20450;-72
2022/12/25 11:02:25;;;;;;;5.80;3.37;;;9.90;99.90;;;;;;4905829;28;20467;-71
2022/12/25 11:05:08;;;;;;;3.60;3.00;;;9.90;99.90;;;;;;4884403;29;20445;-71
2022/12/25 11:07:54;;;;;;;4.70;3.23;;;9.90;99.90;;;;;;4878247;28;20537;-71
2022/12/25 11:10:30;;;;;;;5.90;3.00;;;9.90;99.90;;;;;;4887029;29;20461;-71
2022/12/25 11:12:58;;;;;;;3.60;3.20;;;9.90;99.90;;;;;;4893486;28;20826;-72
2022/12/25 11:15:46;;;;;;;6.17;3.73;;;9.90;99.90;;;;;;4892560;29;20465;-72
2022/12/25 11:18:21;;;;;;;4.03;2.97;;;9.90;99.90;;;;;;4908672;29;20446;-72
2022/12/25 11:21:01;;;;;;;6.10;3.53;;;9.90;99.90;;;;;;4894665;29;20429;-70
2022/12/25 11:23:31;;;;;;;3.93;3.23;;;9.90;99.90;;;;;;4862634;29;20446;-72
2022/12/25 11:26:13;;;;;;;6.27;3.30;;;9.90;99.90;;;;;;4890492;29;20438;-72
2022/12/25 11:28:51;;;;;;;4.80;3.20;;;10.00;99.90;;;;;;4907385;29;20508;-72
2022/12/25 11:31:39;;;;;;;4.30;3.30;;;9.90;99.90;;;;;;4876250;29;20494;-72
2022/12/25 11:34:26;;;;;;;4.97;3.53;;;9.90;99.90;;;;;;4893509;29;20472;-73
2022/12/25 11:36:56;;;;;;;4.80;3.63;;;9.90;99.90;;;;;;4900948;28;20833;-71
2022/12/25 11:39:26;;;;;;;5.43;3.50;;;10.00;99.90;;;;;;4891274;29;20518;-74
2022/12/25 11:42:21;;;;;;;4.20;3.03;;;9.90;99.90;;;;;;4884372;29;20446;-72
2022/12/25 11:45:09;;;;;;;6.23;4.10;;;9.90;99.90;;;;;;4922531;28;20554;-74
2022/12/25 11:47:44;;;;;;;3.20;2.90;;;9.90;99.90;;;;;;4906012;29;20484;-76
2022/12/25 11:50:31;;;;;;;3.83;3.00;;;9.90;99.90;;;;;;4864312;29;20473;-75
2022/12/25 11:53:06;;;;;;;5.73;4.17;;;10.00;99.90;;;;;;4880547;29;20456;-75
2022/12/25 11:55:39;;;;;;;5.43;3.57;;;10.00;99.90;;;;;;4896806;29;20433;-73
2022/12/25 11:58:18;;;;;;;3.53;2.83;;;10.00;99.90;;;;;;4914699;28;20449;-74
2022/12/25 12:00:47;;;;;;;9.30;4.47;;;10.00;99.90;;;;;;4895964;29;20418;-74
2022/12/25 12:03:30;;;;;;;5.10;3.77;;;10.00;99.90;;;;;;4896920;29;20838;-74
2022/12/25 12:06:18;;;;;;;3.93;3.07;;;10.00;99.90;;;;;;4960611;28;20977;-75
2022/12/25 12:08:52;;;;;;;6.03;4.00;;;10.00;99.90;;;;;;4883193;29;20466;-74
2022/12/25 12:11:25;;;;;;;3.50;2.70;;;10.00;99.90;;;;;;4902500;29;20426;-75
2022/12/25 12:14:06;;;;;;;3.40;3.00;;;10.00;99.90;;;;;;4910719;29;20450;-72
2022/12/25 12:16:35;;;;;;;5.40;3.87;;;10.00;99.90;;;;;;4893674;28;20445;-74
2022/12/25 12:19:26;;;;;;;5.20;3.33;;;10.00;99.90;;;;;;4894497;28;20469;-73
2022/12/25 12:21:55;;;;;;;4.20;2.70;;;10.00;99.90;;;;;;4898580;28;20418;-73
2022/12/25 12:24:23;;;;;;;4.00;3.20;;;10.00;99.90;;;;;;4882685;28;20953;-73
2022/12/25 12:27:05;;;;;;;5.23;3.03;;;10.00;99.90;;;;;;4939521;28;20450;-74
2022/12/25 12:29:44;;;;;;;5.83;4.47;;;10.00;99.90;;;;;;4905223;28;20833;-73
2022/12/25 12:32:41;;;;;;;7.47;3.30;;;10.00;99.90;;;;;;4880652;29;20793;-74
2022/12/25 12:35:17;;;;;;;4.57;3.00;;;10.00;99.90;;;;;;4909676;28;20443;-74
2022/12/25 12:37:53;;;;;;;4.27;2.90;;;10.00;99.90;;;;;;4891187;29;20569;-73
2022/12/25 12:40:50;;;;;;;4.90;3.67;;;10.00;99.90;;;;;;4896391;28;20468;-73
2022/12/25 12:43:30;;;;;;;4.53;3.20;;;10.00;99.90;;;;;;4916340;28;20897;-73
2022/12/25 12:46:15;;;;;;;4.10;3.13;;;10.10;99.90;;;;;;4885917;29;20920;-73
2022/12/25 12:48:45;;;;;;;3.67;2.80;;;10.10;99.90;;;;;;4903107;28;20960;-73
2022/12/25 12:51:35;;;;;;;3.50;3.07;;;10.00;99.90;;;;;;4922473;28;20438;-73
2022/12/25 12:54:25;;;;;;;5.47;3.10;;;10.00;99.90;;;;;;4955483;28;20455;-73
2022/12/25 12:57:03;;;;;;;3.90;2.77;;;10.00;99.90;;;;;;4891513;29;20797;-73
2022/12/25 12:59:43;;;;;;;5.00;3.30;;;10.10;99.90;;;;;;4897654;28;20472;-75
2022/12/25 13:02:30;;;;;;;4.77;3.37;;;10.00;99.90;;;;;;4885586;29;20453;-74
2022/12/25 13:05:15;;;;;;;3.80;3.30;;;10.10;99.90;;;;;;4904249;29;20431;-73
2022/12/25 13:07:51;;;;;;;5.00;3.07;;;10.10;99.90;;;;;;4886168;29;20454;-74
2022/12/25 13:10:39;;;;;;;3.07;2.53;;;10.00;99.90;;;;;;4902160;28;20541;-74
2022/12/25 13:13:20;;;;;;;4.03;3.07;;;10.10;99.90;;;;;;4880463;29;20513;-72
2022/12/25 13:15:50;;;;;;;3.10;2.67;;;10.10;99.90;;;;;;4918073;28;21001;-71
2022/12/25 13:18:17;;;;;;;3.93;2.87;;;10.10;99.90;;;;;;4879289;28;20436;-74
2022/12/25 13:20:54;;;;;;;3.13;2.43;;;10.10;99.90;;;;;;4869164;28;20458;-73
2022/12/25 13:23:29;;;;;;;3.13;2.70;;;10.10;99.90;;;;;;4892293;28;20516;-75
2022/12/25 13:26:03;;;;;;;5.13;3.27;;;10.10;99.90;;;;;;4908751;29;20792;-73
2022/12/25 13:28:34;;;;;;;7.30;2.50;;;10.10;99.90;;;;;;4875134;28;20954;-73
2022/12/25 13:31:12;;;;;;;3.67;2.83;;;10.10;99.90;;;;;;4889438;28;20430;-74
2022/12/25 13:34:03;;;;;;;2.90;2.60;;;10.10;99.90;;;;;;4875346;29;20469;-76
2022/12/25 13:36:34;;;;;;;5.33;2.80;;;10.10;99.90;;;;;;4890725;28;20449;-73
2022/12/25 13:39:07;;;;;;;3.13;2.73;;;10.10;99.90;;;;;;4914278;29;20484;-74
2022/12/25 13:44:44;;;;;;;3.10;2.80;;;10.10;99.90;;;;;;4878751;29;20419;-74
2022/12/25 13:47:19;;;;;;;3.20;2.60;;;10.10;99.90;;;;;;4903465;28;20794;-74
2022/12/25 13:49:49;;;;;;;4.97;2.90;;;10.10;99.90;;;;;;4909743;29;20445;-74
2022/12/25 13:52:24;;;;;;;4.47;2.97;;;10.10;99.90;;;;;;4905408;28;20461;-74
2022/12/25 13:55:00;;;;;;;3.00;2.63;;;10.10;99.90;;;;;;4966286;28;20469;-75
2022/12/25 13:57:32;;;;;;;4.07;2.50;;;10.10;99.90;;;;;;4976141;28;20798;-74
2022/12/25 14:00:05;;;;;;;3.90;2.57;;;10.10;99.90;;;;;;4917801;28;20452;-74
2022/12/25 14:02:38;;;;;;;3.20;2.43;;;10.10;99.90;;;;;;4916255;28;20527;-75
2022/12/25 14:05:29;;;;;;;3.73;3.30;;;10.20;99.90;;;;;;4912531;28;20420;-72
2022/12/25 14:08:01;;;;;;;3.70;2.90;;;10.10;99.90;;;;;;4892446;29;20450;-73
2022/12/25 14:10:36;;;;;;;4.00;3.07;;;10.10;99.90;;;;;;4874613;28;20477;-73
2022/12/25 14:13:11;;;;;;;3.60;3.00;;;10.20;99.90;;;;;;4957876;28;20480;-74
2022/12/25 14:15:42;;;;;;;4.53;3.77;;;10.20;99.90;;;;;;4863145;29;20431;-73
2022/12/25 14:18:17;;;;;;;4.87;3.53;;;10.20;99.90;;;;;;4896960;29;20414;-74
2022/12/25 14:21:15;;;;;;;7.10;3.67;;;10.20;99.90;;;;;;4923110;28;20938;-73
2022/12/25 14:23:48;;;;;;;4.23;3.27;;;10.20;99.90;;;;;;4987777;28;20451;-73
2022/12/25 14:26:24;;;;;;;5.67;3.83;;;10.20;99.90;;;;;;4984774;22;20790;-74
2022/12/25 14:29:10;;;;;;;5.30;3.80;;;10.20;99.90;;;;;;4946748;28;20481;-74
2022/12/25 14:31:38;;;;;;;3.90;3.27;;;10.20;99.90;;;;;;4891500;29;20461;-73
2022/12/25 14:34:11;;;;;;;4.07;3.20;;;10.20;99.90;;;;;;4893082;29;20812;-73
2022/12/25 14:36:37;;;;;;;3.70;3.30;;;10.20;99.90;;;;;;4907698;28;20458;-73
2022/12/25 14:39:21;;;;;;;5.80;3.27;;;10.20;99.90;;;;;;4958518;28;20519;-73
2022/12/25 14:41:52;;;;;;;5.97;3.00;;;10.20;99.90;;;;;;4973573;28;20456;-73
2022/12/25 14:44:26;;;;;;;4.87;3.63;;;10.20;99.90;;;;;;4988580;28;20958;-73
2022/12/25 14:47:04;;;;;;;5.37;3.67;;;10.20;99.90;;;;;;4990535;28;20438;-73
2022/12/25 14:49:31;;;;;;;6.10;4.00;;;10.20;99.90;;;;;;4913674;29;20477;-73
2022/12/25 14:52:15;;;;;;;4.97;3.17;;;10.30;99.90;;;;;;4893355;28;20441;-74
2022/12/25 14:55:04;;;;;;;6.13;4.30;;;10.30;99.90;;;;;;4895145;28;20975;-75
2022/12/25 14:57:37;;;;;;;8.93;3.60;;;10.20;99.90;;;;;;4893542;28;20438;-73
2022/12/25 15:00:20;;;;;;;6.87;4.20;;;10.20;99.90;;;;;;4988330;28;20430;-74
2022/12/25 15:02:52;;;;;;;4.00;3.00;;;10.30;99.90;;;;;;4890799;29;20465;-74